createdAt,value
2023-03-27T00:00:33.476Z,74.74
2023-03-27T00:05:35.869Z,74.56
2023-03-27T00:10:39.882Z,74.72
2023-03-27T00:15:42.480Z,75.11
2023-03-27T00:20:44.599Z,75.86
2023-03-27T00:25:50.410Z,75.48
2023-03-27T00:30:52.885Z,75.77
2023-03-27T00:35:55.537Z,76.29
2023-03-27T00:41:00.876Z,76.83
2023-03-27T00:46:08.420Z,77.32
2023-03-27T00:51:10.886Z,77.65
2023-03-27T00:56:15.381Z,77.31
2023-03-27T01:01:19.229Z,77.60
2023-03-27T01:06:22.222Z,77.93
2023-03-27T01:11:42.957Z,78.30
2023-03-27T01:16:56.088Z,78.52
2023-03-27T01:22:32.902Z,78.13
2023-03-27T01:28:09.627Z,78.47
2023-03-27T01:33:44.825Z,78.77
2023-03-27T01:39:17.754Z,78.92
2023-03-27T01:44:43.196Z,78.69
2023-03-27T01:49:54.176Z,79.43
2023-03-27T01:55:00.574Z,80.05
2023-03-27T02:00:17.966Z,80.28
2023-03-27T02:05:28.211Z,80.60
2023-03-27T02:10:37.247Z,80.84
2023-03-27T02:15:43.464Z,80.99
2023-03-27T02:20:46.229Z,80.61
2023-03-27T02:25:52.968Z,80.23
2023-03-27T02:31:05.634Z,80.21
2023-03-27T02:36:35.248Z,79.72
2023-03-27T02:41:43.701Z,80.08
2023-03-27T02:46:53.455Z,79.32
2023-03-27T02:52:00.488Z,79.33
2023-03-27T02:57:08.018Z,79.36
2023-03-27T03:02:16.544Z,79.57
2023-03-27T03:07:19.025Z,80.38
2023-03-27T03:12:22.258Z,80.41
2023-03-27T03:17:24.822Z,80.59
2023-03-27T03:22:26.968Z,80.24
2023-03-27T03:27:30.598Z,80.20
2023-03-27T03:32:32.697Z,80.50
2023-03-27T03:37:35.021Z,79.77
2023-03-27T03:42:44.733Z,80.92
2023-03-27T03:47:47.370Z,79.38
2023-03-27T03:52:49.086Z,80.18
2023-03-27T03:57:52.787Z,79.21
2023-03-27T04:02:54.880Z,79.18
2023-03-27T04:07:57.669Z,78.35
2023-03-27T04:13:01.114Z,78.25
2023-03-27T04:18:04.202Z,77.59
2023-03-27T04:23:06.070Z,78.41
2023-03-27T04:28:09.542Z,79.08
2023-03-27T04:33:12.263Z,80.12
2023-03-27T04:38:14.937Z,80.09
2023-03-27T04:43:18.557Z,79.98
2023-03-27T04:48:20.845Z,80.45
2023-03-27T04:53:22.983Z,80.39
2023-03-27T04:58:26.311Z,80.80
2023-03-27T05:03:28.162Z,81.24
2023-03-27T05:08:30.569Z,81.65
2023-03-27T05:13:33.912Z,81.91
2023-03-27T05:18:36.123Z,81.83
2023-03-27T05:23:38.360Z,81.54
2023-03-27T05:28:41.511Z,81.35
2023-03-27T05:33:43.627Z,81.11
2023-03-27T05:38:45.767Z,81.27
2023-03-27T05:43:51.031Z,81.46
2023-03-27T05:48:53.040Z,81.66
2023-03-27T05:53:55.468Z,81.77
2023-03-27T05:58:58.832Z,80.27
2023-03-27T06:04:01.116Z,79.76
2023-03-27T06:09:04.176Z,80.02
2023-03-27T06:14:07.695Z,79.29
2023-03-27T06:19:09.995Z,80.19
2023-03-27T06:24:12.102Z,79.74
2023-03-27T06:29:16.275Z,80.10
2023-03-27T06:34:18.422Z,80.83
2023-03-27T06:39:20.561Z,81.46
2023-03-27T06:44:24.247Z,81.77
2023-03-27T06:49:26.229Z,81.55
2023-03-27T06:54:28.795Z,79.17
2023-03-27T06:59:32.446Z,78.18
2023-03-27T07:04:34.522Z,77.37
2023-03-27T07:09:38.788Z,78.46
2023-03-27T07:14:43.730Z,76.10
2023-03-27T07:19:45.476Z,74.87
2023-03-27T07:24:50.675Z,73.66
2023-03-27T07:29:54.375Z,72.44
2023-03-27T07:34:56.692Z,72.47
2023-03-27T07:40:00.840Z,72.30
2023-03-27T07:45:04.890Z,70.56
2023-03-27T07:50:08.133Z,70.80
2023-03-27T07:55:11.291Z,71.20
2023-03-27T08:00:16.658Z,71.30
2023-03-27T08:05:19.468Z,70.65
2023-03-27T08:10:21.672Z,69.75
2023-03-27T08:15:25.554Z,71.12
2023-03-27T08:20:27.923Z,72.23
2023-03-27T08:25:30.555Z,72.04
2023-03-27T08:30:36.704Z,72.12
2023-03-27T08:35:38.528Z,70.51
2023-03-27T08:40:46.732Z,69.05
2023-03-27T08:45:56.753Z,66.31
2023-03-27T08:51:02.496Z,67.57
2023-03-27T08:56:05.283Z,66.07
2023-03-27T09:01:19.254Z,64.83
2023-03-27T09:06:26.938Z,65.83
2023-03-27T09:11:47.385Z,64.78
2023-03-27T09:16:55.629Z,64.31
2023-03-27T09:22:05.171Z,62.77
2023-03-27T09:27:15.911Z,62.69
2023-03-27T09:32:19.544Z,59.53
2023-03-27T09:37:21.617Z,56.94
2023-03-27T09:42:28.735Z,55.03
2023-03-27T09:47:37.243Z,44.52
2023-03-27T09:52:40.308Z,48.21
2023-03-27T09:57:42.424Z,48.82
2023-03-27T10:02:45.907Z,48.47
2023-03-27T10:07:48.469Z,47.28
2023-03-27T10:12:55.401Z,47.64
2023-03-27T10:18:01.305Z,42.78
2023-03-27T10:23:08.878Z,39.40
2023-03-27T10:28:18.711Z,36.78
2023-03-27T10:33:37.680Z,40.90
2023-03-27T10:38:42.536Z,48.06
2023-03-27T10:43:47.472Z,52.96
2023-03-27T10:49:00.270Z,54.05
2023-03-27T10:54:10.075Z,54.75
2023-03-27T10:59:16.678Z,54.08
2023-03-27T11:04:23.594Z,55.28
2023-03-27T11:09:34.029Z,47.52
2023-03-27T11:14:45.759Z,43.64
2023-03-27T11:19:53.789Z,44.42
2023-03-27T11:25:00.618Z,42.58
2023-03-27T11:30:24.831Z,45.66
2023-03-27T11:35:33.967Z,52.18
2023-03-27T11:40:40.198Z,52.46
2023-03-27T11:45:48.669Z,52.17
2023-03-27T11:50:59.646Z,49.36
2023-03-27T11:56:17.583Z,48.19
2023-03-27T12:01:28.237Z,45.77
2023-03-27T12:06:36.753Z,48.63
2023-03-27T12:11:43.176Z,48.58
2023-03-27T12:17:09.835Z,47.65
2023-03-27T12:22:24.696Z,46.03
2023-03-27T12:27:37.184Z,47.93
2023-03-27T12:33:04.789Z,47.04
2023-03-27T12:38:16.152Z,48.07
2023-03-27T12:43:27.787Z,50.60
2023-03-27T12:48:29.936Z,64.06
2023-03-27T12:53:51.261Z,73.86
2023-03-27T12:58:55.364Z,71.65
2023-03-27T13:04:19.141Z,71.43
2023-03-27T13:09:47.300Z,65.77
2023-03-27T13:15:17.833Z,64.22
2023-03-27T13:20:33.140Z,65.60
2023-03-27T13:25:52.941Z,65.64
2023-03-27T13:30:56.581Z,61.06
2023-03-27T13:36:10.738Z,56.82
2023-03-27T13:41:59.894Z,51.35
2023-03-27T13:47:21.265Z,52.76
2023-03-27T13:52:46.007Z,52.88
2023-03-27T13:58:06.243Z,58.95
2023-03-27T14:03:47.403Z,60.00
2023-03-27T14:09:02.216Z,54.82
2023-03-27T14:14:29.136Z,52.55
2023-03-27T14:20:18.720Z,52.00
2023-03-27T14:25:24.301Z,54.18
2023-03-27T14:30:29.334Z,53.78
2023-03-27T14:35:35.981Z,56.15
2023-03-27T14:40:43.160Z,59.10
2023-03-27T14:45:46.201Z,60.60
2023-03-27T14:50:54.824Z,63.17
2023-03-27T14:56:01.331Z,64.35
2023-03-27T15:01:04.748Z,64.19
2023-03-27T15:06:14.879Z,65.38
2023-03-27T15:11:21.245Z,65.44
2023-03-27T15:16:26.151Z,67.80
2023-03-27T15:21:33.945Z,72.31
2023-03-27T15:26:36.892Z,72.07
2023-03-27T15:31:39.124Z,67.61
2023-03-27T15:36:45.964Z,68.16
2023-03-27T15:41:52.091Z,64.98
2023-03-27T15:46:56.040Z,64.47
2023-03-27T15:52:01.114Z,64.07
2023-03-27T15:57:10.487Z,63.95
2023-03-27T16:02:17.149Z,63.78
2023-03-27T16:07:24.101Z,62.70
2023-03-27T16:12:30.838Z,60.74
2023-03-27T16:17:37.893Z,57.90
2023-03-27T16:22:41.308Z,58.89
2023-03-27T16:27:47.527Z,59.65
2023-03-27T16:32:49.928Z,59.95
2023-03-27T16:37:53.587Z,58.62
2023-03-27T16:42:55.697Z,62.96
2023-03-27T16:47:58.095Z,68.34
2023-03-27T16:53:01.623Z,71.48
2023-03-27T16:58:03.950Z,71.72
2023-03-27T17:03:06.014Z,71.34
2023-03-27T17:08:09.673Z,71.58
2023-03-27T17:13:12.383Z,70.38
2023-03-27T17:18:15.027Z,71.26
2023-03-27T17:23:19.012Z,70.20
2023-03-27T17:28:21.248Z,70.02
2023-03-27T17:33:24.234Z,68.73
2023-03-27T17:38:28.046Z,68.45
2023-03-27T17:43:30.106Z,68.82
2023-03-27T17:48:32.604Z,69.58
2023-03-27T17:53:37.522Z,70.73
2023-03-27T17:58:39.512Z,71.62
2023-03-27T18:03:41.779Z,71.66
2023-03-27T18:08:45.643Z,70.36
2023-03-27T18:13:47.977Z,67.07
2023-03-27T18:18:50.107Z,65.02
2023-03-27T18:23:53.989Z,65.02
2023-03-27T18:28:56.438Z,67.21
2023-03-27T18:33:58.735Z,68.01
2023-03-27T18:39:01.954Z,69.61
2023-03-27T18:44:03.832Z,71.19
2023-03-27T18:49:17.347Z,72.14
2023-03-27T18:54:22.107Z,73.63
2023-03-27T18:59:24.403Z,75.59
2023-03-27T19:04:26.262Z,76.28
2023-03-27T19:09:40.855Z,77.23
2023-03-27T19:14:43.591Z,78.25
2023-03-27T19:19:46.604Z,80.00
2023-03-27T19:24:50.077Z,81.10
2023-03-27T19:29:52.586Z,83.15
2023-03-27T19:34:54.858Z,84.52
2023-03-27T19:39:58.668Z,85.25
2023-03-27T19:45:00.476Z,86.04
2023-03-27T19:50:02.520Z,86.59
2023-03-27T19:55:06.248Z,87.00
2023-03-27T20:00:09.768Z,87.14
2023-03-27T20:05:11.946Z,87.62
2023-03-27T20:10:15.374Z,87.85
2023-03-27T20:15:17.602Z,87.55
2023-03-27T20:20:20.118Z,87.41
2023-03-27T20:25:23.632Z,87.43
2023-03-27T20:30:26.177Z,87.03
2023-03-27T20:35:28.370Z,86.36
2023-03-27T20:40:37.040Z,85.45
2023-03-27T20:45:51.137Z,84.63
2023-03-27T20:50:53.700Z,84.41
2023-03-27T20:56:03.086Z,83.82
2023-03-27T21:01:07.054Z,83.03
2023-03-27T21:06:12.412Z,83.08
2023-03-27T21:11:16.388Z,82.10
2023-03-27T21:16:18.160Z,82.83
2023-03-27T21:21:20.548Z,82.86
2023-03-27T21:26:23.637Z,82.75
2023-03-27T21:31:26.352Z,83.68
2023-03-27T21:36:29.716Z,90.27
2023-03-27T21:41:33.499Z,93.33
2023-03-27T21:46:35.796Z,94.81
2023-03-27T21:51:38.142Z,96.95
2023-03-27T21:56:41.785Z,97.24
2023-03-27T22:01:44.193Z,97.80
2023-03-27T22:06:46.774Z,96.41
2023-03-27T22:11:50.446Z,95.53
2023-03-27T22:16:52.709Z,95.53
2023-03-27T22:21:54.642Z,95.49
2023-03-27T22:26:57.992Z,95.42
2023-03-27T22:32:00.420Z,93.68
2023-03-27T22:37:02.578Z,92.72
2023-03-27T22:42:06.024Z,91.74
2023-03-27T22:47:07.740Z,90.78
2023-03-27T22:52:10.090Z,89.90
2023-03-27T22:57:13.271Z,87.62
2023-03-27T23:02:15.412Z,86.59
2023-03-27T23:07:17.607Z,85.46
2023-03-27T23:12:21.132Z,86.04
2023-03-27T23:17:23.214Z,86.19
2023-03-27T23:22:25.357Z,86.10
2023-03-27T23:27:30.925Z,85.65
2023-03-27T23:32:33.047Z,86.00
2023-03-27T23:37:35.367Z,85.50
2023-03-27T23:42:38.899Z,85.04
2023-03-27T23:47:41.023Z,85.38
2023-03-27T23:52:43.009Z,85.90
2023-03-27T23:57:46.473Z,87.05
